Main page
METAR-TAF:

METAR-TAF

Airports :

Granada, Spain

Federico García Lorca Airport

latitude: 37-11N, longitude: 003-47W, elevation: 567 m

Current weather observation

The report was made 42 minutes ago, at 08:30 UTC
Calm wind
Temperature 19°C
Humidity 68%
Pressure 1021 hPa
Visibility 10 km or more
Few clouds at a height of 6500 ft

METAR: LEGR 230830Z 00000KT 9999 FEW065 19/13 Q1021

Time: 11:12 (09:12 UTC)

Forecast

The report was made 1 hour and 12 minutes ago, at 08:00 UTC
Forecast valid from 23 at 09 UTC to 24 at 09 UTC
Wind 2 kt from variable directions
Visibility 10 km or more
no clouds below 1500 m and no cumulonimbus
Probability 40% :
Temporary
from 23 at 16 UTC to 23 at 20 UTC
Wind 10 kt from the South/Southwest

TAF: LEGR 230800Z 2309/2409 VRB02KT CAVOK TX32/2315Z TN12/2406Z PROB40 TEMPO 2316/2320 21010KT

Weather observations and forecasts of more than 4000 airports (METAR and TAF reports).

The available stations are represented by yellow and red dots on the map.

Hover mouse over dot to see the name of the station.

Then click to see weather observations and forecasts.

To change the map : click on the green buttons with a black cross to zoom in, on the green button with a dash to zoom out, or on the green arrows for adjacent maps.


METAR-TAF: